createdAt,value
2024-05-09T00:02:43.031Z,96678.44
2024-05-09T00:09:01.497Z,96665.03
2024-05-09T00:15:20.364Z,96662.31
2024-05-09T00:21:45.226Z,96661.06
2024-05-09T00:27:53.437Z,96659.41
2024-05-09T00:38:42.909Z,96643.72
2024-05-09T00:45:01.946Z,96645.56
2024-05-09T00:51:20.913Z,96636.22
2024-05-09T00:57:29.457Z,96632.50
2024-05-09T01:03:51.424Z,96640.72
2024-05-09T01:10:39.518Z,96636.69
2024-05-09T01:16:48.601Z,96634.66
2024-05-09T01:22:58.747Z,96624.28
2024-05-09T01:29:17.498Z,96629.81
2024-05-09T01:40:09.593Z,96632.78
2024-05-09T01:46:30.852Z,96633.59
2024-05-09T01:52:39.473Z,96630.69
2024-05-09T01:58:58.103Z,96636.69
2024-05-09T02:05:45.550Z,96646.63
2024-05-09T02:11:54.567Z,96659.06
2024-05-09T02:18:03.586Z,96657.84
2024-05-09T02:24:21.980Z,96658.00
2024-05-09T02:30:42.048Z,96666.38
2024-05-09T02:41:23.159Z,96663.19
2024-05-09T02:47:31.891Z,96661.66
2024-05-09T02:53:50.529Z,96662.09
2024-05-09T03:00:15.242Z,96660.28
2024-05-09T03:06:54.020Z,96661.53
2024-05-09T03:13:16.302Z,96665.16
2024-05-09T03:19:36.636Z,96666.56
2024-05-09T03:25:45.562Z,96661.84
2024-05-09T03:32:04.264Z,96661.84
2024-05-09T03:43:08.189Z,96652.06
2024-05-09T03:49:27.237Z,96648.84
2024-05-09T03:55:45.472Z,96649.56
2024-05-09T04:02:21.742Z,96656.41
2024-05-09T04:08:40.443Z,96663.78
2024-05-09T04:14:58.882Z,96667.69
2024-05-09T04:21:17.085Z,96671.44
2024-05-09T04:27:25.383Z,96663.16
2024-05-09T04:33:44.098Z,96667.06
2024-05-09T04:44:34.229Z,96666.88
2024-05-09T04:50:53.003Z,96660.25
2024-05-09T04:57:29.071Z,96668.44
2024-05-09T05:03:47.644Z,96670.75
2024-05-09T05:10:09.339Z,96677.69
2024-05-09T05:16:29.919Z,96673.47
2024-05-09T05:22:38.248Z,96681.69
2024-05-09T05:28:56.782Z,96678.28
2024-05-09T05:35:15.464Z,96680.50
2024-05-09T05:46:05.661Z,96656.97
2024-05-09T05:52:13.988Z,96667.63
2024-05-09T05:58:58.927Z,96669.50
2024-05-09T06:05:18.187Z,96667.53
2024-05-09T06:11:36.707Z,96671.78
2024-05-09T06:17:45.162Z,96680.81
2024-05-09T06:24:06.516Z,96683.28
2024-05-09T06:30:30.510Z,96679.47
2024-05-09T06:36:56.378Z,96683.34
2024-05-09T06:47:59.487Z,96694.44
2024-05-09T06:54:45.054Z,96695.59
2024-05-09T07:01:04.337Z,96700.44
2024-05-09T07:07:12.864Z,96699.22
2024-05-09T07:13:31.441Z,96694.72
2024-05-09T07:19:51.609Z,96699.50
2024-05-09T07:26:10.292Z,96702.69
2024-05-09T07:32:19.041Z,96701.84
2024-05-09T07:38:37.954Z,96711.72
2024-05-09T07:55:50.758Z,96717.00
2024-05-09T08:01:59.705Z,96717.09
2024-05-09T08:08:18.513Z,96706.69
2024-05-09T08:14:36.680Z,96713.38
2024-05-09T08:20:54.942Z,96726.34
2024-05-09T08:27:13.425Z,96719.53
2024-05-09T08:33:33.044Z,96725.06
2024-05-09T08:39:51.788Z,96730.06
2024-05-09T08:51:07.637Z,96730.31
2024-05-09T08:57:16.897Z,96720.31
2024-05-09T09:03:38.004Z,96711.81
2024-05-09T09:09:57.450Z,96712.25
2024-05-09T09:16:16.927Z,96711.81
2024-05-09T09:22:25.053Z,96711.75
2024-05-09T09:28:45.369Z,96694.53
2024-05-09T09:35:03.593Z,96696.56
2024-05-09T09:41:30.810Z,96686.13
2024-05-09T09:52:34.372Z,96671.19
2024-05-09T09:58:53.768Z,96682.50
2024-05-09T10:05:12.734Z,96679.69
2024-05-09T10:11:31.777Z,96672.53
2024-05-09T10:17:51.633Z,96677.44
2024-05-09T10:24:10.428Z,96677.84
2024-05-09T10:30:36.148Z,96669.78
2024-05-09T10:36:56.439Z,96661.13
2024-05-09T10:43:32.059Z,96652.09
2024-05-09T10:54:39.963Z,96641.44
2024-05-09T11:00:59.369Z,96643.41
2024-05-09T11:07:22.105Z,96635.91
2024-05-09T11:13:32.223Z,96643.81
2024-05-09T11:19:51.474Z,96629.38
2024-05-09T11:26:11.276Z,96619.19
2024-05-09T11:32:30.013Z,96622.59
2024-05-09T11:39:16.274Z,96614.06
2024-05-09T11:45:34.865Z,96591.84
2024-05-09T11:56:39.422Z,96599.78
2024-05-09T12:02:47.756Z,96575.03
2024-05-09T12:08:57.123Z,96565.75
2024-05-09T12:15:06.169Z,96571.94
2024-05-09T12:21:25.052Z,96579.69
2024-05-09T12:27:43.044Z,96563.38
2024-05-09T12:34:28.027Z,96563.00
2024-05-09T12:40:38.818Z,96557.72
2024-05-09T12:46:59.215Z,96557.94
2024-05-09T12:57:50.654Z,96555.13
2024-05-09T13:03:58.591Z,96545.19
2024-05-09T13:10:25.534Z,96536.31
2024-05-09T13:16:50.808Z,96534.88
2024-05-09T13:23:02.087Z,96524.41
2024-05-09T13:29:21.014Z,96520.34
2024-05-09T13:36:07.029Z,96517.56
2024-05-09T13:42:15.680Z,96523.44
2024-05-09T13:48:48.373Z,96505.66
2024-05-09T13:59:38.424Z,96495.00
2024-05-09T14:05:57.266Z,96505.78
2024-05-09T14:12:07.413Z,96500.47
2024-05-09T14:18:26.888Z,96500.56
2024-05-09T14:24:45.626Z,96488.81
2024-05-09T14:31:21.101Z,96489.41
2024-05-09T14:37:39.848Z,96484.13
2024-05-09T14:43:57.987Z,96493.91
2024-05-09T14:50:23.761Z,96487.03
2024-05-09T15:01:32.199Z,96492.06
2024-05-09T15:07:50.768Z,96489.81
2024-05-09T15:14:09.443Z,96483.16
2024-05-09T15:20:26.832Z,96487.50
2024-05-09T15:27:18.873Z,96478.91
2024-05-09T15:33:37.076Z,96485.63
2024-05-09T15:39:45.478Z,96487.09
2024-05-09T15:46:03.873Z,96489.41
2024-05-09T15:52:22.313Z,96482.03
2024-05-09T16:03:25.621Z,96483.28
2024-05-09T16:09:34.584Z,96479.94
2024-05-09T16:15:52.814Z,96483.50
2024-05-09T16:22:11.526Z,96484.31
2024-05-09T16:28:30.262Z,96486.19
2024-05-09T16:34:39.154Z,96486.56
2024-05-09T16:40:57.703Z,96489.91
2024-05-09T16:47:16.515Z,96490.31
2024-05-09T16:53:36.236Z,96496.94
2024-05-09T17:04:15.547Z,96501.91
2024-05-09T17:10:31.303Z,96504.78
2024-05-09T17:16:42.400Z,96517.00
2024-05-09T17:23:28.112Z,96520.28
2024-05-09T17:29:46.422Z,96529.94
2024-05-09T17:36:05.195Z,96537.28
2024-05-09T17:42:23.777Z,96542.59
2024-05-09T17:48:42.687Z,96552.16
2024-05-09T17:55:01.614Z,96557.44
2024-05-09T18:05:40.404Z,96567.75
2024-05-09T18:11:49.007Z,96573.63
2024-05-09T18:18:34.721Z,96576.25
2024-05-09T18:24:53.905Z,96587.41
2024-05-09T18:31:12.279Z,96589.94
2024-05-09T18:37:20.909Z,96597.56
2024-05-09T18:43:44.955Z,96605.75
2024-05-09T18:50:14.306Z,96614.34
2024-05-09T18:56:37.799Z,96609.81
2024-05-09T19:07:41.572Z,96637.03
2024-05-09T19:14:04.749Z,96649.03
2024-05-09T19:20:28.687Z,96653.09
2024-05-09T19:26:52.437Z,96657.81
2024-05-09T19:33:13.422Z,96664.22
2024-05-09T19:39:32.762Z,96678.66
2024-05-09T19:45:51.958Z,96689.16
2024-05-09T19:52:00.464Z,96684.84
2024-05-09T19:58:19.252Z,96684.19
2024-05-09T20:09:09.728Z,96697.66
2024-05-09T20:15:55.283Z,96701.34
2024-05-09T20:22:03.737Z,96708.66
2024-05-09T20:28:23.649Z,96715.97
2024-05-09T20:34:41.658Z,96717.78
2024-05-09T20:41:00.067Z,96717.22
2024-05-09T20:47:09.176Z,96723.84
2024-05-09T20:53:27.742Z,96730.13
2024-05-09T20:59:45.792Z,96727.06
2024-05-09T21:10:36.119Z,96730.59
2024-05-09T21:16:45.057Z,96733.09
2024-05-09T21:23:04.285Z,96736.28
2024-05-09T21:29:22.466Z,96742.31
2024-05-09T21:35:41.568Z,96744.44
2024-05-09T21:41:50.347Z,96752.75
2024-05-09T21:48:09.151Z,96744.88
2024-05-09T21:54:27.675Z,96743.94
2024-05-09T22:00:46.797Z,96754.75
2024-05-09T22:11:54.561Z,96759.06
2024-05-09T22:18:13.376Z,96762.34
2024-05-09T22:24:31.892Z,96769.41
2024-05-09T22:30:51.111Z,96764.84
2024-05-09T22:36:59.934Z,96771.75
2024-05-09T22:43:23.926Z,96772.19
2024-05-09T22:49:43.735Z,96761.75
2024-05-09T22:56:02.275Z,96758.28
2024-05-09T23:02:11.533Z,96756.75
2024-05-09T23:13:31.527Z,96753.84
2024-05-09T23:19:50.266Z,96755.44
2024-05-09T23:26:08.832Z,96755.69
2024-05-09T23:32:17.419Z,96756.63
2024-05-09T23:38:36.036Z,96746.19
2024-05-09T23:44:55.053Z,96752.22
2024-05-09T23:51:13.405Z,96743.03
2024-05-09T23:57:45.702Z,96746.97
